createdAt,value
2019-06-26T04:00:55.410Z,4.00
2019-06-26T04:01:55.584Z,8.30
2019-06-26T04:02:55.775Z,7.70
2019-06-26T04:03:57.494Z,8.20
2019-06-26T04:04:56.100Z,8.00
2019-06-26T04:05:56.276Z,8.60
2019-06-26T04:06:56.450Z,8.70
2019-06-26T04:07:56.628Z,8.60
2019-06-26T04:08:56.805Z,8.40
2019-06-26T04:09:57.002Z,8.80
2019-06-26T04:10:57.155Z,8.40
2019-06-26T04:11:57.327Z,8.50
2019-06-26T04:12:57.503Z,8.60
2019-06-26T04:13:57.678Z,8.00
2019-06-26T04:14:57.866Z,7.80
2019-06-26T04:15:58.028Z,7.80
2019-06-26T04:16:58.203Z,7.80
2019-06-26T04:17:58.382Z,7.90
2019-06-26T04:18:58.560Z,7.90
2019-06-26T04:19:58.728Z,8.10
2019-06-26T04:20:58.903Z,8.10
2019-06-26T04:21:59.088Z,8.20
2019-06-26T04:22:59.259Z,8.50
2019-06-26T04:23:59.433Z,8.40
2019-06-26T04:24:59.612Z,8.20
2019-06-26T04:25:59.795Z,8.70
2019-06-26T04:26:59.957Z,8.90
2019-06-26T04:28:00.135Z,8.70
2019-06-26T04:29:00.314Z,8.10
2019-06-26T04:30:00.488Z,8.80
2019-06-26T04:31:00.662Z,8.80
2019-06-26T04:32:00.837Z,7.90
2019-06-26T04:33:01.012Z,8.90
2019-06-26T04:34:01.192Z,9.10
2019-06-26T04:35:01.395Z,9.10
2019-06-26T04:36:01.540Z,8.60
2019-06-26T04:37:01.715Z,8.60
2019-06-26T04:38:01.890Z,9.40
2019-06-26T04:39:02.065Z,8.80
2019-06-26T04:40:02.239Z,9.00
2019-06-26T04:41:02.416Z,8.50
2019-06-26T04:42:02.591Z,8.80
2019-06-26T04:43:02.815Z,7.90
2019-06-26T04:44:02.948Z,8.40
2019-06-26T04:45:03.125Z,8.20
2019-06-26T04:46:03.298Z,8.50
2019-06-26T04:47:03.467Z,8.60
2019-06-26T04:48:06.920Z,8.80
2019-06-26T04:49:03.824Z,8.30
2019-06-26T04:50:03.993Z,8.80
2019-06-26T04:51:04.171Z,8.80
2019-06-26T04:52:04.344Z,9.00
2019-06-26T04:53:04.519Z,8.90
2019-06-26T04:54:04.696Z,9.00
2019-06-26T04:55:04.873Z,8.40
2019-06-26T04:56:05.049Z,8.50
2019-06-26T04:57:05.224Z,8.80
2019-06-26T04:58:05.399Z,9.50
2019-06-26T04:59:05.576Z,9.40
2019-06-26T05:00:05.755Z,9.10
2019-06-26T05:01:05.931Z,8.90
2019-06-26T05:02:06.111Z,9.00
2019-06-26T05:03:06.284Z,8.90
2019-06-26T05:04:06.476Z,9.40
2019-06-26T05:05:06.674Z,9.10
2019-06-26T05:06:06.814Z,8.70
2019-06-26T05:07:06.989Z,9.30
2019-06-26T05:08:07.491Z,9.30
2019-06-26T05:09:07.362Z,9.10
2019-06-26T05:10:07.537Z,8.60
2019-06-26T05:11:07.716Z,9.00
2019-06-26T05:12:07.886Z,8.50
2019-06-26T05:13:08.069Z,8.90
2019-06-26T05:14:08.246Z,8.30
2019-06-26T05:15:08.421Z,9.00
2019-06-26T05:16:15.003Z,8.80
2019-06-26T05:17:08.773Z,9.00
2019-06-26T05:18:08.948Z,9.10
2019-06-26T05:19:09.122Z,9.20
2019-06-26T05:20:09.296Z,9.00
2019-06-26T05:21:09.482Z,9.10
2019-06-26T05:22:09.647Z,9.10
2019-06-26T05:23:09.829Z,8.90
2019-06-26T05:24:10.006Z,8.80
2019-06-26T05:25:10.181Z,9.30
2019-06-26T05:26:10.361Z,9.30
2019-06-26T05:27:10.532Z,9.50
2019-06-26T05:28:10.715Z,9.20
2019-06-26T05:29:10.889Z,9.20
2019-06-26T05:30:11.085Z,9.70
2019-06-26T05:31:11.262Z,9.10
2019-06-26T05:32:11.416Z,9.80
2019-06-26T05:33:11.593Z,9.50
2019-06-26T05:34:11.771Z,9.40
2019-06-26T05:35:11.946Z,9.70
2019-06-26T05:36:12.135Z,9.50
2019-06-26T05:37:12.307Z,9.40
2019-06-26T05:38:12.478Z,9.30
2019-06-26T05:39:12.655Z,9.20
2019-06-26T05:40:12.850Z,9.60
2019-06-26T05:41:13.009Z,9.20
2019-06-26T05:42:13.185Z,9.20
2019-06-26T05:43:13.360Z,9.60
2019-06-26T05:44:13.538Z,10.00
2019-06-26T05:45:13.711Z,9.90
2019-06-26T05:46:26.917Z,9.50
2019-06-26T05:47:14.062Z,10.10
2019-06-26T05:48:14.713Z,10.10
2019-06-26T05:49:14.409Z,9.70
2019-06-26T05:50:14.584Z,9.50
2019-06-26T05:51:14.760Z,10.10
2019-06-26T05:52:16.673Z,9.80
2019-06-26T05:53:15.122Z,9.90
2019-06-26T05:54:15.302Z,9.70
2019-06-26T05:55:15.466Z,10.10
2019-06-26T05:56:15.652Z,9.90
2019-06-26T05:57:15.829Z,9.90
2019-06-26T05:58:15.994Z,9.50
2019-06-26T05:59:16.170Z,9.40
2019-06-26T06:00:16.383Z,9.30
2019-06-26T06:01:16.525Z,9.40
2019-06-26T06:02:16.706Z,9.10
2019-06-26T06:03:16.880Z,9.00
2019-06-26T06:04:17.053Z,9.60
2019-06-26T06:05:17.230Z,10.00
2019-06-26T06:06:17.407Z,9.90
2019-06-26T06:07:17.584Z,9.20
2019-06-26T06:08:17.762Z,8.90
2019-06-26T06:09:17.940Z,8.70
2019-06-26T06:10:18.116Z,9.00
2019-06-26T06:11:18.292Z,9.10
2019-06-26T06:12:18.471Z,9.50
2019-06-26T06:13:18.658Z,9.30
2019-06-26T06:14:18.823Z,8.70
2019-06-26T06:15:19.010Z,9.60
2019-06-26T06:16:19.178Z,8.60
2019-06-26T06:17:19.357Z,8.70
2019-06-26T06:18:19.532Z,9.30
2019-06-26T06:19:19.801Z,9.00
2019-06-26T06:20:19.895Z,9.40
2019-06-26T06:21:20.115Z,9.20
2019-06-26T06:22:20.235Z,9.20
2019-06-26T06:23:20.411Z,9.50
2019-06-26T06:24:20.592Z,8.90
2019-06-26T06:25:20.772Z,9.20
2019-06-26T06:26:20.947Z,8.70
2019-06-26T06:27:21.125Z,9.10
2019-06-26T06:28:21.302Z,9.00
2019-06-26T06:29:21.483Z,8.50
2019-06-26T06:30:21.655Z,8.40
2019-06-26T06:31:21.831Z,7.80
2019-06-26T06:32:22.008Z,9.10
2019-06-26T06:33:22.204Z,8.80
2019-06-26T06:34:22.363Z,8.90
2019-06-26T06:35:22.540Z,8.70
2019-06-26T06:36:22.720Z,9.00
2019-06-26T06:37:22.902Z,8.10
2019-06-26T06:38:23.074Z,8.50
2019-06-26T06:39:23.251Z,8.60
2019-06-26T06:40:23.431Z,8.20
2019-06-26T06:41:23.607Z,8.10
2019-06-26T06:42:23.787Z,8.30
2019-06-26T06:43:23.959Z,8.40
2019-06-26T06:44:24.137Z,8.30
2019-06-26T06:45:24.435Z,8.00
2019-06-26T06:46:24.494Z,8.20
2019-06-26T06:47:24.676Z,8.20
2019-06-26T06:48:24.852Z,7.90
2019-06-26T06:49:25.027Z,7.90
2019-06-26T06:50:25.203Z,7.60
2019-06-26T06:51:25.382Z,8.10
2019-06-26T06:52:25.567Z,7.70
2019-06-26T06:53:25.739Z,7.80
2019-06-26T06:54:25.917Z,7.90
2019-06-26T06:55:26.091Z,7.90
2019-06-26T06:56:26.275Z,7.90
2019-06-26T06:57:26.441Z,7.70
2019-06-26T06:58:30.078Z,7.40
2019-06-26T06:59:26.794Z,8.20
2019-06-26T07:00:26.969Z,8.00
2019-06-26T07:01:27.150Z,7.50
2019-06-26T07:02:27.329Z,7.80
2019-06-26T07:03:27.495Z,8.00
2019-06-26T07:04:27.669Z,7.50
2019-06-26T07:05:27.847Z,7.60
2019-06-26T07:06:28.032Z,7.70
2019-06-26T07:07:28.200Z,7.50
2019-06-26T07:08:28.394Z,7.70
2019-06-26T07:09:28.565Z,8.20
2019-06-26T07:10:28.726Z,7.80
2019-06-26T07:11:28.920Z,7.70
2019-06-26T07:12:29.098Z,8.10
2019-06-26T07:13:29.274Z,7.80
2019-06-26T07:14:29.450Z,7.50
2019-06-26T07:15:29.631Z,7.90
2019-06-26T07:16:29.807Z,7.90
2019-06-26T07:17:29.984Z,7.60
2019-06-26T07:18:30.163Z,7.60
2019-06-26T07:19:30.351Z,7.70
2019-06-26T07:20:30.524Z,7.80
2019-06-26T07:21:30.696Z,7.30
2019-06-26T07:22:30.874Z,7.50
2019-06-26T07:23:31.050Z,7.50
2019-06-26T07:24:31.225Z,7.60
2019-06-26T07:25:31.404Z,7.10
2019-06-26T07:26:31.588Z,7.50
2019-06-26T07:27:31.761Z,7.80
2019-06-26T07:28:31.937Z,7.40
2019-06-26T07:29:32.115Z,7.70
2019-06-26T07:30:32.291Z,7.80
2019-06-26T07:31:32.470Z,7.30
2019-06-26T07:32:32.647Z,7.90
2019-06-26T07:33:32.823Z,7.90
2019-06-26T07:34:33.002Z,7.50
2019-06-26T07:35:33.181Z,7.80
2019-06-26T07:36:33.359Z,7.80
2019-06-26T07:37:33.536Z,7.70
2019-06-26T07:38:33.711Z,7.80
2019-06-26T07:39:33.890Z,8.10
2019-06-26T07:40:34.067Z,7.90
2019-06-26T07:41:34.241Z,7.90
2019-06-26T07:42:34.419Z,7.60
2019-06-26T07:43:34.598Z,7.70
2019-06-26T07:44:34.774Z,7.50
2019-06-26T07:45:34.950Z,7.90
2019-06-26T07:46:35.128Z,7.60
2019-06-26T07:47:43.326Z,7.50
2019-06-26T07:48:35.484Z,7.80
2019-06-26T07:49:35.661Z,7.40
2019-06-26T07:50:35.837Z,7.80
2019-06-26T07:51:36.017Z,7.90
2019-06-26T07:52:36.191Z,7.70
2019-06-26T07:53:36.370Z,7.60
2019-06-26T07:54:36.552Z,7.90
2019-06-26T07:55:40.371Z,8.00
2019-06-26T07:56:36.901Z,8.00
2019-06-26T07:57:37.080Z,7.60
2019-06-26T07:58:37.259Z,7.80
2019-06-26T07:59:37.437Z,7.50
2019-06-26T08:00:37.620Z,8.20
2019-06-26T08:01:37.798Z,7.50
2019-06-26T08:02:37.976Z,8.00
2019-06-26T08:03:38.156Z,7.90
2019-06-26T08:04:38.332Z,7.90
2019-06-26T08:05:42.472Z,7.90
2019-06-26T08:06:38.708Z,8.10
2019-06-26T08:07:38.865Z,7.60
2019-06-26T08:08:39.033Z,7.50
2019-06-26T08:09:39.225Z,8.00
2019-06-26T08:10:39.389Z,7.90
2019-06-26T08:11:39.565Z,7.30
2019-06-26T08:12:39.743Z,7.80
2019-06-26T08:13:39.925Z,7.00
2019-06-26T08:14:40.113Z,7.60
2019-06-26T08:15:40.278Z,7.70
2019-06-26T08:16:40.459Z,7.90
2019-06-26T08:17:40.633Z,7.30
2019-06-26T08:18:40.881Z,7.60
2019-06-26T08:19:40.995Z,7.50
2019-06-26T08:20:51.873Z,7.50
2019-06-26T08:21:41.344Z,7.70
2019-06-26T08:22:41.520Z,7.10
2019-06-26T08:23:41.700Z,7.80
2019-06-26T08:24:41.881Z,7.90
2019-06-26T08:25:42.056Z,7.80
2019-06-26T08:26:42.235Z,7.60
2019-06-26T08:27:42.414Z,7.90
2019-06-26T08:28:42.593Z,7.40
2019-06-26T08:29:42.771Z,7.60
2019-06-26T08:30:42.947Z,7.70
2019-06-26T08:31:43.129Z,7.70
2019-06-26T08:32:43.303Z,7.90
2019-06-26T08:33:43.484Z,7.80
2019-06-26T08:34:43.661Z,7.60
2019-06-26T08:35:43.836Z,8.00
2019-06-26T08:36:44.017Z,7.80
2019-06-26T08:37:44.197Z,7.70
2019-06-26T08:38:44.377Z,7.40
2019-06-26T08:39:44.559Z,7.60
2019-06-26T08:40:44.743Z,7.50
2019-06-26T08:41:44.915Z,7.50
2019-06-26T08:42:45.436Z,7.50
2019-06-26T08:43:45.218Z,7.50
2019-06-26T08:44:45.389Z,7.70
2019-06-26T08:45:45.567Z,7.30
2019-06-26T08:46:45.749Z,7.50
2019-06-26T08:47:45.928Z,6.80
2019-06-26T08:48:46.105Z,7.70
2019-06-26T08:49:46.281Z,7.70
2019-06-26T08:50:46.459Z,7.30
2019-06-26T08:51:46.639Z,7.70
2019-06-26T08:52:46.817Z,7.20
2019-06-26T08:53:46.993Z,6.80
2019-06-26T08:54:47.174Z,6.70
2019-06-26T08:55:47.356Z,7.30
2019-06-26T08:56:47.531Z,6.80
2019-06-26T08:57:47.713Z,7.10
2019-06-26T08:58:47.893Z,7.30
2019-06-26T08:59:48.072Z,6.90
2019-06-26T09:00:48.252Z,6.80
2019-06-26T09:01:48.429Z,6.80
2019-06-26T09:02:48.610Z,7.30
2019-06-26T09:03:48.786Z,6.90
2019-06-26T09:04:48.987Z,7.00
2019-06-26T09:05:49.145Z,7.10
2019-06-26T09:06:49.321Z,7.20
2019-06-26T09:07:49.541Z,7.20
2019-06-26T09:08:49.683Z,6.70
2019-06-26T09:09:49.863Z,7.00
2019-06-26T09:10:50.025Z,7.00
2019-06-26T09:11:50.212Z,6.70
2019-06-26T09:12:50.401Z,7.10
2019-06-26T09:13:50.574Z,7.10
2019-06-26T09:14:50.751Z,6.10
2019-06-26T09:15:50.932Z,6.40
2019-06-26T09:16:51.108Z,6.00
2019-06-26T09:17:51.290Z,6.10
2019-06-26T09:18:51.474Z,5.80
2019-06-26T09:19:51.648Z,6.10
2019-06-26T09:20:51.826Z,5.20
2019-06-26T09:21:52.015Z,5.20
2019-06-26T09:22:52.182Z,5.40
2019-06-26T09:23:52.358Z,5.30
2019-06-26T09:24:52.604Z,5.50
2019-06-26T09:25:52.716Z,5.20
2019-06-26T09:26:52.902Z,5.40
2019-06-26T09:27:53.080Z,5.30
2019-06-26T09:28:53.260Z,4.90
2019-06-26T09:29:53.441Z,4.80
2019-06-26T09:30:53.617Z,5.00
2019-06-26T09:31:53.796Z,4.90
2019-06-26T09:32:53.984Z,4.90
2019-06-26T09:33:54.158Z,4.70
2019-06-26T09:34:54.340Z,5.00
2019-06-26T09:35:54.513Z,5.40
2019-06-26T09:36:54.693Z,5.10
2019-06-26T09:37:54.883Z,5.40
2019-06-26T09:38:57.904Z,5.60
2019-06-26T09:39:55.246Z,4.70
2019-06-26T09:40:55.469Z,4.90
2019-06-26T09:41:55.599Z,5.00
2019-06-26T09:42:55.777Z,4.80
2019-06-26T09:43:55.966Z,5.10
2019-06-26T09:44:56.127Z,4.80
2019-06-26T09:45:56.308Z,5.00
2019-06-26T09:46:56.495Z,5.10
2019-06-26T09:47:56.672Z,4.70
2019-06-26T09:48:56.852Z,4.90
2019-06-26T09:49:57.033Z,4.90
2019-06-26T09:50:57.211Z,4.50
2019-06-26T09:51:57.418Z,4.80
2019-06-26T09:52:57.575Z,4.90
2019-06-26T09:53:57.754Z,4.70
2019-06-26T09:54:57.933Z,5.00
2019-06-26T09:55:58.118Z,4.60
2019-06-26T09:56:58.295Z,4.70
2019-06-26T09:57:58.475Z,4.90
2019-06-26T09:58:58.690Z,4.80
2019-06-26T09:59:58.835Z,4.80
2019-06-26T10:00:59.024Z,4.60
2019-06-26T10:01:59.196Z,4.50
2019-06-26T10:02:59.374Z,5.00
2019-06-26T10:03:59.557Z,5.10
2019-06-26T10:04:59.734Z,4.70
2019-06-26T10:05:59.922Z,4.20
2019-06-26T10:07:00.187Z,4.50
2019-06-26T10:08:00.277Z,4.50
2019-06-26T10:09:00.455Z,4.60
2019-06-26T10:10:00.635Z,4.30
2019-06-26T10:11:00.817Z,4.40
2019-06-26T10:12:00.994Z,4.90
2019-06-26T10:13:01.175Z,4.60
2019-06-26T10:14:01.357Z,4.70
2019-06-26T10:15:01.535Z,4.40
2019-06-26T10:16:01.716Z,4.80
2019-06-26T10:17:01.895Z,4.50
2019-06-26T10:18:02.079Z,4.70
2019-06-26T10:19:10.204Z,4.50
2019-06-26T10:20:02.441Z,4.10
2019-06-26T10:21:02.624Z,4.50
2019-06-26T10:22:02.804Z,4.40
2019-06-26T10:23:02.985Z,4.40
2019-06-26T10:24:03.179Z,4.20
2019-06-26T10:25:03.358Z,4.40
2019-06-26T10:26:03.528Z,4.30
2019-06-26T10:27:03.710Z,4.30
2019-06-26T10:28:03.899Z,4.00
2019-06-26T10:29:04.301Z,4.40
2019-06-26T10:30:04.314Z,4.10
2019-06-26T10:31:04.444Z,4.30
2019-06-26T10:32:04.619Z,4.30
2019-06-26T10:33:04.802Z,4.40
2019-06-26T10:34:04.979Z,4.20
2019-06-26T10:35:05.160Z,4.20
2019-06-26T10:36:05.341Z,4.40
2019-06-26T10:37:05.525Z,4.10
2019-06-26T10:38:05.743Z,4.30
2019-06-26T10:39:05.894Z,4.10
2019-06-26T10:40:06.132Z,4.00
2019-06-26T10:41:06.254Z,4.10
2019-06-26T10:42:06.491Z,4.30
2019-06-26T10:43:06.616Z,4.10
2019-06-26T10:44:06.794Z,4.10
2019-06-26T10:45:06.978Z,4.20
2019-06-26T10:46:07.163Z,4.00
2019-06-26T10:47:07.340Z,4.00
2019-06-26T10:48:07.524Z,4.30
2019-06-26T10:49:07.709Z,3.80
2019-06-26T10:50:07.891Z,4.30
2019-06-26T10:51:08.074Z,4.10
2019-06-26T10:52:08.261Z,4.50
2019-06-26T10:53:08.439Z,4.20
2019-06-26T10:54:08.626Z,4.30
2019-06-26T10:55:08.826Z,4.40
2019-06-26T10:56:08.992Z,3.80
2019-06-26T10:57:09.180Z,3.90
2019-06-26T10:58:09.358Z,4.00
2019-06-26T10:59:09.543Z,4.00
2019-06-26T11:00:09.742Z,4.40
2019-06-26T11:01:09.913Z,4.20
2019-06-26T11:02:10.095Z,4.20
2019-06-26T11:03:10.278Z,3.90
2019-06-26T11:04:10.467Z,3.80
2019-06-26T11:05:10.646Z,4.00
2019-06-26T11:06:10.836Z,3.70
2019-06-26T11:07:11.015Z,3.90
2019-06-26T11:08:11.202Z,4.00
2019-06-26T11:09:11.386Z,4.00
2019-06-26T11:10:11.571Z,4.10
2019-06-26T11:11:11.752Z,4.10
2019-06-26T11:12:11.938Z,3.80
2019-06-26T11:13:12.128Z,3.70
2019-06-26T11:14:12.305Z,3.50
2019-06-26T11:15:12.493Z,3.90
2019-06-26T11:16:12.677Z,3.90
2019-06-26T11:17:12.863Z,4.00
2019-06-26T11:18:13.055Z,4.00
2019-06-26T11:19:13.237Z,3.90
2019-06-26T11:20:13.417Z,3.70
2019-06-26T11:21:13.603Z,3.70
2019-06-26T11:22:13.786Z,3.60
2019-06-26T11:23:13.970Z,3.90
2019-06-26T11:24:14.164Z,3.70
2019-06-26T11:25:14.343Z,3.70
2019-06-26T11:26:14.532Z,3.70
2019-06-26T11:27:14.715Z,3.30
2019-06-26T11:28:14.903Z,3.70
2019-06-26T11:29:15.093Z,3.70
2019-06-26T11:30:15.273Z,4.00
2019-06-26T11:31:15.459Z,3.70
2019-06-26T11:32:15.645Z,3.80
2019-06-26T11:33:15.828Z,3.80
2019-06-26T11:34:16.015Z,4.30
2019-06-26T11:35:16.199Z,4.10
2019-06-26T11:36:16.384Z,3.60
2019-06-26T11:37:16.575Z,3.80
2019-06-26T11:38:16.755Z,3.80
2019-06-26T11:39:16.941Z,4.30
2019-06-26T11:40:17.135Z,4.10
2019-06-26T11:41:17.313Z,3.90
2019-06-26T11:42:17.499Z,4.40
2019-06-26T11:43:17.691Z,4.20
2019-06-26T11:44:17.873Z,3.70
2019-06-26T11:45:18.058Z,4.60
2019-06-26T11:46:18.242Z,3.90
2019-06-26T11:47:18.429Z,3.90
2019-06-26T11:48:18.631Z,4.10
2019-06-26T11:49:18.800Z,3.90
2019-06-26T11:50:18.994Z,3.90
2019-06-26T11:51:19.237Z,3.90
2019-06-26T11:52:19.427Z,4.10
2019-06-26T11:53:19.555Z,3.80
2019-06-26T11:54:19.739Z,3.70
2019-06-26T11:55:19.927Z,3.80
2019-06-26T11:56:20.113Z,3.90
2019-06-26T11:57:20.302Z,4.30
2019-06-26T11:58:20.484Z,4.00
2019-06-26T11:59:20.674Z,4.00
2019-06-26T12:00:20.865Z,3.90
2019-06-26T12:01:21.056Z,4.00
2019-06-26T12:02:21.236Z,4.00
2019-06-26T12:03:21.423Z,3.90
2019-06-26T12:04:21.769Z,3.50
2019-06-26T12:05:21.797Z,3.90
2019-06-26T12:06:21.983Z,3.60
2019-06-26T12:07:22.175Z,3.90
2019-06-26T12:08:22.366Z,4.00
2019-06-26T12:09:22.558Z,3.60
2019-06-26T12:10:22.744Z,4.10
2019-06-26T12:11:22.926Z,4.20
2019-06-26T12:12:23.124Z,3.80
2019-06-26T12:13:23.300Z,3.90
2019-06-26T12:14:23.495Z,3.70
2019-06-26T12:15:23.679Z,3.80
2019-06-26T12:16:23.885Z,3.70
2019-06-26T12:17:24.053Z,3.90
2019-06-26T12:18:24.236Z,4.20
2019-06-26T12:19:24.426Z,3.60
2019-06-26T12:20:24.614Z,4.00
2019-06-26T12:21:24.802Z,3.80
2019-06-26T12:22:24.987Z,3.90
2019-06-26T12:23:25.177Z,4.10
2019-06-26T12:24:26.639Z,4.10
2019-06-26T12:25:25.558Z,4.30
2019-06-26T12:26:25.748Z,4.10
2019-06-26T12:27:25.937Z,4.30
2019-06-26T12:28:26.126Z,4.20
2019-06-26T12:29:26.309Z,4.20
2019-06-26T12:30:26.500Z,4.00
2019-06-26T12:31:26.689Z,4.20
2019-06-26T12:32:26.876Z,4.70
2019-06-26T12:33:27.063Z,4.00
2019-06-26T12:34:27.254Z,4.10
2019-06-26T12:35:27.443Z,4.30
2019-06-26T12:36:27.632Z,4.10
2019-06-26T12:37:37.158Z,4.50
2019-06-26T12:38:28.008Z,4.30
2019-06-26T12:39:28.200Z,4.40
2019-06-26T12:40:31.034Z,4.30
2019-06-26T12:41:28.581Z,4.20
2019-06-26T12:42:28.766Z,4.30
2019-06-26T12:43:28.955Z,4.20
2019-06-26T12:44:29.144Z,4.10
2019-06-26T12:45:29.333Z,4.10
2019-06-26T12:46:29.536Z,4.80
2019-06-26T12:47:29.709Z,4.70
2019-06-26T12:48:29.899Z,4.80
2019-06-26T12:49:30.086Z,4.30
2019-06-26T12:50:35.850Z,4.50
2019-06-26T12:51:30.465Z,4.80
2019-06-26T12:52:30.653Z,4.60
2019-06-26T12:53:30.841Z,4.40
2019-06-26T12:54:31.028Z,4.40
2019-06-26T12:55:32.967Z,4.70
2019-06-26T12:56:31.406Z,5.00
2019-06-26T12:57:31.595Z,4.70
2019-06-26T12:58:31.782Z,4.50
2019-06-26T12:59:31.971Z,4.90
2019-06-26T13:00:32.161Z,4.50
2019-06-26T13:01:32.347Z,4.90
2019-06-26T13:02:32.536Z,4.70
2019-06-26T13:03:32.722Z,4.40
2019-06-26T13:04:32.913Z,4.80
2019-06-26T13:05:33.100Z,4.50
2019-06-26T13:06:33.294Z,4.90
2019-06-26T13:07:33.483Z,4.80
2019-06-26T13:08:33.663Z,4.50
2019-06-26T13:09:33.850Z,4.60
2019-06-26T13:10:48.474Z,5.10
2019-06-26T13:11:34.237Z,4.80
2019-06-26T13:12:34.435Z,4.90
2019-06-26T13:13:34.607Z,5.00
2019-06-26T13:14:34.791Z,4.80
2019-06-26T13:15:35.017Z,4.60
2019-06-26T13:16:35.163Z,5.00
2019-06-26T13:17:35.349Z,4.70
2019-06-26T13:18:35.536Z,4.70
2019-06-26T13:19:35.724Z,4.80
2019-06-26T13:20:51.754Z,4.70
2019-06-26T13:21:36.115Z,4.80
2019-06-26T13:22:36.323Z,5.20
2019-06-26T13:23:36.476Z,4.80
2019-06-26T13:24:36.672Z,4.90
2019-06-26T13:25:36.847Z,4.80
2019-06-26T13:26:37.034Z,4.50
2019-06-26T13:27:37.219Z,4.90
2019-06-26T13:28:37.412Z,4.80
2019-06-26T13:29:37.595Z,4.90
2019-06-26T13:30:37.786Z,5.10
2019-06-26T13:31:37.972Z,4.90
2019-06-26T13:32:38.159Z,4.70
2019-06-26T13:33:38.346Z,5.20
2019-06-26T13:34:38.531Z,4.90
2019-06-26T13:35:38.720Z,4.60
2019-06-26T13:36:38.905Z,4.90
2019-06-26T13:37:39.093Z,5.10
2019-06-26T13:38:39.286Z,4.60
2019-06-26T13:39:39.473Z,5.00
2019-06-26T13:40:41.092Z,5.00
2019-06-26T13:41:39.847Z,4.80
2019-06-26T13:42:40.038Z,4.90
2019-06-26T13:43:40.244Z,5.00
2019-06-26T13:44:40.412Z,4.90
2019-06-26T13:45:40.599Z,5.00
2019-06-26T13:46:40.790Z,5.00
2019-06-26T13:47:40.974Z,5.00
2019-06-26T13:48:41.169Z,4.90
2019-06-26T13:49:41.352Z,5.00
2019-06-26T13:50:41.541Z,5.00
2019-06-26T13:51:41.731Z,5.10
2019-06-26T13:52:41.918Z,4.80
2019-06-26T13:53:42.106Z,5.00
2019-06-26T13:54:42.317Z,5.10
2019-06-26T13:55:42.481Z,5.20
2019-06-26T13:56:42.670Z,5.10
2019-06-26T13:57:42.856Z,5.10
2019-06-26T13:58:43.042Z,5.10
2019-06-26T13:59:43.231Z,5.30
2019-06-26T14:00:43.417Z,5.40
2019-06-26T14:01:43.604Z,5.60
2019-06-26T14:02:43.790Z,5.30
2019-06-26T14:03:43.985Z,5.40
2019-06-26T14:04:44.181Z,4.90
2019-06-26T14:05:44.352Z,5.20
2019-06-26T14:06:44.540Z,5.40
2019-06-26T14:07:44.732Z,4.90
2019-06-26T14:08:44.901Z,5.00
2019-06-26T14:09:45.218Z,5.00
2019-06-26T14:10:45.275Z,5.20
2019-06-26T14:11:45.458Z,4.80
2019-06-26T14:12:45.652Z,4.90
2019-06-26T14:13:45.832Z,5.20
2019-06-26T14:14:56.949Z,5.30
2019-06-26T14:15:46.193Z,5.00
2019-06-26T14:16:46.378Z,5.00
2019-06-26T14:17:46.584Z,5.40
2019-06-26T14:18:46.749Z,5.10
2019-06-26T14:19:46.937Z,5.40
2019-06-26T14:20:47.153Z,5.70
2019-06-26T14:21:47.317Z,5.20
2019-06-26T14:22:47.568Z,5.70
2019-06-26T14:23:47.692Z,5.60
2019-06-26T14:24:47.881Z,5.40
2019-06-26T14:25:48.066Z,5.30
2019-06-26T14:26:48.250Z,5.30
2019-06-26T14:27:48.433Z,5.10
2019-06-26T14:28:48.629Z,5.20
2019-06-26T14:29:48.805Z,5.20
2019-06-26T14:30:48.994Z,5.00
2019-06-26T14:31:49.193Z,5.20
2019-06-26T14:32:49.368Z,5.70
2019-06-26T14:33:49.556Z,5.30
2019-06-26T14:34:49.740Z,4.90
2019-06-26T14:35:49.925Z,5.10
2019-06-26T14:36:50.116Z,4.90
2019-06-26T14:37:50.312Z,5.00
2019-06-26T14:38:50.481Z,5.40
2019-06-26T14:39:50.664Z,5.20
2019-06-26T14:40:50.851Z,5.00
2019-06-26T14:41:51.035Z,4.90
2019-06-26T14:42:51.224Z,5.20
2019-06-26T14:43:51.406Z,5.30
2019-06-26T14:44:52.849Z,5.20
2019-06-26T14:45:51.780Z,5.20
2019-06-26T14:46:51.965Z,5.00
2019-06-26T14:47:52.155Z,4.80
2019-06-26T14:48:52.341Z,5.00
2019-06-26T14:49:52.527Z,5.30
2019-06-26T14:50:52.709Z,5.20
2019-06-26T14:51:52.898Z,4.90
2019-06-26T14:52:53.085Z,5.10
2019-06-26T14:53:53.274Z,5.10
2019-06-26T14:54:53.458Z,5.50
2019-06-26T14:55:53.642Z,4.90
2019-06-26T14:56:53.868Z,4.70
2019-06-26T14:57:54.038Z,4.80
2019-06-26T14:58:54.206Z,4.80
2019-06-26T14:59:54.398Z,4.90
2019-06-26T15:00:54.583Z,5.10
2019-06-26T15:01:54.772Z,4.80
2019-06-26T15:02:54.954Z,5.20
2019-06-26T15:03:55.137Z,5.10
2019-06-26T15:04:55.325Z,4.70
2019-06-26T15:05:55.511Z,4.70
2019-06-26T15:06:55.699Z,4.90
2019-06-26T15:07:55.882Z,4.70
2019-06-26T15:08:56.069Z,4.70
2019-06-26T15:09:56.254Z,4.70
2019-06-26T15:10:56.447Z,4.90
2019-06-26T15:11:56.621Z,4.80
2019-06-26T15:12:56.802Z,4.90
2019-06-26T15:13:56.986Z,4.90
2019-06-26T15:14:57.162Z,4.80
2019-06-26T15:15:57.350Z,5.20
2019-06-26T15:16:57.541Z,5.00
2019-06-26T15:17:57.717Z,5.10
2019-06-26T15:18:57.906Z,5.10
2019-06-26T15:19:58.092Z,4.70
2019-06-26T15:20:58.279Z,5.20
2019-06-26T15:21:59.097Z,4.80
2019-06-26T15:22:58.955Z,4.80
2019-06-26T15:23:58.845Z,5.10
2019-06-26T15:24:59.028Z,5.10
2019-06-26T15:25:59.213Z,5.10
2019-06-26T15:26:59.399Z,5.00
2019-06-26T15:27:59.602Z,4.90
2019-06-26T15:28:59.775Z,5.10
2019-06-26T15:29:59.965Z,4.70
2019-06-26T15:31:00.150Z,4.70
2019-06-26T15:32:00.374Z,4.80
2019-06-26T15:33:00.530Z,4.90
2019-06-26T15:34:00.718Z,4.90
2019-06-26T15:35:00.935Z,4.90
2019-06-26T15:36:01.096Z,4.80
2019-06-26T15:37:01.281Z,4.90
2019-06-26T15:38:01.469Z,4.70
2019-06-26T15:39:01.651Z,4.90
2019-06-26T15:40:01.839Z,4.50
2019-06-26T15:41:02.022Z,5.00
2019-06-26T15:42:02.215Z,4.60
2019-06-26T15:43:02.400Z,4.80
2019-06-26T15:44:02.583Z,5.30
2019-06-26T15:45:02.771Z,5.00
2019-06-26T15:46:02.956Z,4.90
2019-06-26T15:47:03.144Z,4.90
2019-06-26T15:48:03.328Z,4.70
2019-06-26T15:49:03.525Z,4.70
2019-06-26T15:50:03.697Z,4.40
2019-06-26T15:51:03.886Z,5.30
2019-06-26T15:52:14.543Z,4.70
2019-06-26T15:53:04.259Z,4.90
2019-06-26T15:54:04.446Z,4.90
2019-06-26T15:55:04.633Z,4.70
2019-06-26T15:56:04.818Z,4.80
2019-06-26T15:57:05.005Z,5.00
2019-06-26T15:58:05.192Z,5.20
2019-06-26T15:59:05.381Z,5.00
2019-06-26T16:00:05.561Z,5.40
2019-06-26T16:01:05.750Z,6.50
2019-06-26T16:02:05.937Z,6.80
2019-06-26T16:03:06.125Z,5.10
2019-06-26T16:04:06.307Z,4.90
2019-06-26T16:05:06.496Z,5.30
2019-06-26T16:06:06.679Z,5.30
2019-06-26T16:07:06.864Z,5.00
2019-06-26T16:08:07.056Z,5.30
2019-06-26T16:09:07.242Z,5.20
2019-06-26T16:10:07.428Z,5.10
2019-06-26T16:11:07.613Z,5.10
2019-06-26T16:12:07.801Z,4.80
2019-06-26T16:13:07.987Z,5.30
2019-06-26T16:14:08.172Z,5.00
2019-06-26T16:15:08.360Z,5.40
2019-06-26T16:16:08.677Z,5.40
2019-06-26T16:17:08.722Z,5.40
2019-06-26T16:18:08.910Z,5.50
2019-06-26T16:19:09.100Z,5.70
2019-06-26T16:20:09.279Z,5.40
2019-06-26T16:21:09.465Z,5.50
2019-06-26T16:22:09.651Z,5.40
2019-06-26T16:23:09.842Z,5.70
2019-06-26T16:24:10.021Z,5.60
2019-06-26T16:25:10.202Z,6.00
2019-06-26T16:26:10.391Z,5.50
2019-06-26T16:27:10.571Z,5.90
2019-06-26T16:28:10.754Z,5.10
2019-06-26T16:29:10.938Z,5.70
2019-06-26T16:30:11.121Z,5.60
2019-06-26T16:31:11.308Z,5.70
2019-06-26T16:32:11.496Z,5.70
2019-06-26T16:33:11.680Z,6.00
2019-06-26T16:34:11.865Z,5.60
2019-06-26T16:35:12.439Z,5.60
2019-06-26T16:36:12.231Z,5.80
2019-06-26T16:37:12.415Z,6.10
2019-06-26T16:38:12.600Z,6.20
2019-06-26T16:39:12.786Z,6.20
2019-06-26T16:40:12.968Z,5.80
2019-06-26T16:41:13.167Z,5.50
2019-06-26T16:42:13.334Z,6.40
2019-06-26T16:43:13.521Z,6.10
2019-06-26T16:44:13.703Z,5.90
2019-06-26T16:45:13.886Z,6.40
2019-06-26T16:46:14.068Z,6.00
2019-06-26T16:47:14.270Z,6.10
2019-06-26T16:48:14.439Z,6.10
2019-06-26T16:49:14.615Z,6.40
2019-06-26T16:50:14.812Z,5.90
2019-06-26T16:51:14.979Z,6.60
2019-06-26T16:52:15.165Z,6.00
2019-06-26T16:53:15.346Z,6.50
2019-06-26T16:54:15.532Z,6.20
2019-06-26T16:55:15.713Z,6.40
2019-06-26T16:56:15.897Z,6.50
2019-06-26T16:57:16.084Z,6.40
2019-06-26T16:58:16.264Z,6.20
2019-06-26T16:59:16.449Z,6.80
2019-06-26T17:00:16.634Z,6.50
2019-06-26T17:01:16.817Z,6.70
2019-06-26T17:02:17.000Z,6.80
2019-06-26T17:03:21.442Z,6.90
2019-06-26T17:04:17.400Z,6.40
2019-06-26T17:05:17.576Z,10.70
2019-06-26T17:06:17.802Z,7.40
2019-06-26T17:07:17.943Z,6.20
2019-06-26T17:08:18.123Z,6.00
2019-06-26T17:09:18.309Z,6.40
2019-06-26T17:10:18.490Z,6.50
2019-06-26T17:11:18.671Z,6.50
2019-06-26T17:12:18.854Z,6.20
2019-06-26T17:13:19.041Z,6.40
2019-06-26T17:14:19.223Z,6.30
2019-06-26T17:15:19.403Z,6.40
2019-06-26T17:16:19.582Z,6.50
2019-06-26T17:17:19.764Z,6.80
2019-06-26T17:18:19.946Z,6.10
2019-06-26T17:19:20.122Z,6.30
2019-06-26T17:20:20.303Z,6.50
2019-06-26T17:21:20.484Z,6.40